Time;durP1;ratioP1;P1;durP2;ratioP2;P2;SDS_P1;SDS_P2;PMS_P1;PMS_P2;Temp;Humidity;BMP_temperature;BMP_pressure;BME280_temperature;BME280_humidity;BME280_pressure;Samples;Min_cycle;Max_cycle;Signal;HPM_P1;HPM_P2
2023/03/27 00:01:14;;;;;;;6.30;3.70;;;17.50;47.60;;;;;;5048720;28;20447;-79
2023/03/27 00:03:42;;;;;;;6.10;3.50;;;17.40;47.50;;;;;;5051773;28;20454;-80
2023/03/27 00:06:15;;;;;;;7.63;3.60;;;17.40;47.50;;;;;;5055595;28;20480;-80
2023/03/27 00:08:43;;;;;;;8.47;4.00;;;17.40;47.50;;;;;;5053436;28;20551;-80
2023/03/27 00:11:12;;;;;;;5.07;4.17;;;17.40;47.50;;;;;;5052642;28;20453;-81
2023/03/27 00:13:40;;;;;;;8.33;4.57;;;17.40;47.50;;;;;;5051617;28;20554;-80
2023/03/27 00:16:17;;;;;;;5.67;3.97;;;17.30;47.40;;;;;;5051321;28;20443;-79
2023/03/27 00:18:45;;;;;;;6.17;4.27;;;17.30;47.40;;;;;;5047373;28;20474;-80
2023/03/27 00:21:13;;;;;;;7.73;4.10;;;17.30;47.40;;;;;;5054736;28;20450;-80
2023/03/27 00:23:42;;;;;;;6.70;4.40;;;17.30;47.40;;;;;;5053185;28;20451;-80
2023/03/27 00:26:12;;;;;;;9.20;4.17;;;17.30;47.40;;;;;;5053099;28;20541;-80
2023/03/27 00:28:39;;;;;;;20.13;12.10;;;17.20;47.40;;;;;;5051441;28;20521;-80
2023/03/27 00:31:10;;;;;;;25.07;14.73;;;17.20;47.50;;;;;;5051667;28;20458;-81
2023/03/27 00:33:38;;;;;;;28.27;16.50;;;17.20;47.40;;;;;;5049268;28;20469;-80
2023/03/27 00:36:06;;;;;;;30.23;16.37;;;17.20;47.50;;;;;;5054471;28;20450;-80
2023/03/27 00:38:34;;;;;;;28.43;17.17;;;17.20;48.00;;;;;;5051290;28;20471;-80
2023/03/27 00:41:03;;;;;;;32.83;18.93;;;17.20;47.50;;;;;;5054346;28;20465;-80
2023/03/27 00:43:33;;;;;;;33.20;19.17;;;17.10;47.50;;;;;;5052646;28;20479;-80
2023/03/27 00:46:02;;;;;;;34.67;21.20;;;17.10;47.60;;;;;;5047364;28;20478;-80
2023/03/27 00:48:31;;;;;;;34.70;20.73;;;17.00;47.60;;;;;;5051607;28;20532;-80
2023/03/27 00:50:59;;;;;;;32.87;20.13;;;17.10;47.50;;;;;;5049703;28;20450;-80
2023/03/27 00:53:28;;;;;;;34.20;20.53;;;17.00;47.40;;;;;;5061598;28;20456;-83
2023/03/27 00:55:57;;;;;;;35.93;20.73;;;17.00;47.60;;;;;;5059668;28;20442;-82
2023/03/27 00:58:27;;;;;;;35.13;20.20;;;17.00;47.60;;;;;;5061461;28;20475;-82
2023/03/27 01:00:56;;;;;;;33.63;19.93;;;17.00;47.60;;;;;;5060922;28;20458;-82
2023/03/27 01:03:27;;;;;;;36.63;20.47;;;16.90;47.60;;;;;;5065521;28;20450;-83
2023/03/27 01:05:55;;;;;;;33.83;19.27;;;17.00;47.70;;;;;;5063606;28;20478;-82
2023/03/27 01:08:23;;;;;;;31.23;19.10;;;16.90;47.70;;;;;;5059233;28;20475;-82
2023/03/27 01:10:55;;;;;;;29.53;18.90;;;16.90;47.70;;;;;;5063695;28;20450;-82
2023/03/27 01:13:32;;;;;;;29.47;17.97;;;16.90;47.70;;;;;;5064631;28;20531;-80
2023/03/27 01:16:04;;;;;;;28.47;17.40;;;16.90;47.70;;;;;;5062773;28;20965;-82
2023/03/27 01:18:37;;;;;;;25.30;15.83;;;16.90;47.70;;;;;;5052893;28;20474;-82
2023/03/27 01:21:31;;;;;;;31.17;17.00;;;16.90;47.80;;;;;;5049827;28;20460;-82
2023/03/27 01:24:49;;;;;;;26.07;16.40;;;16.90;47.70;;;;;;5054971;28;20453;-82
2023/03/27 01:27:18;;;;;;;26.70;15.67;;;16.80;47.90;;;;;;5046296;28;20486;-83
2023/03/27 01:30:00;;;;;;;28.03;15.70;;;16.80;48.00;;;;;;5056507;28;20454;-83
2023/03/27 01:33:05;;;;;;;26.97;15.53;;;16.80;47.90;;;;;;5052750;28;20524;-82
2023/03/27 01:36:04;;;;;;;27.67;16.10;;;16.80;48.10;;;;;;5052925;28;20521;-81
2023/03/27 01:39:06;;;;;;;25.97;14.90;;;16.80;48.10;;;;;;5052529;28;20541;-82
2023/03/27 01:41:39;;;;;;;24.43;14.10;;;16.80;48.10;;;;;;5051202;28;20456;-82
2023/03/27 01:44:11;;;;;;;23.63;13.57;;;16.70;48.00;;;;;;5051397;28;20454;-80
2023/03/27 01:46:41;;;;;;;21.77;13.73;;;16.80;48.10;;;;;;5052451;28;20474;-80
2023/03/27 01:49:11;;;;;;;23.20;13.37;;;16.70;48.20;;;;;;5054461;28;20458;-82
2023/03/27 01:51:40;;;;;;;22.63;13.30;;;16.70;48.20;;;;;;5053893;28;20477;-82
2023/03/27 01:54:10;;;;;;;20.50;12.47;;;16.70;48.20;;;;;;5053895;28;20458;-82
2023/03/27 01:56:40;;;;;;;18.57;12.40;;;16.70;48.40;;;;;;5050068;28;20453;-82
2023/03/27 01:59:10;;;;;;;20.40;12.10;;;16.70;48.20;;;;;;5054630;28;20443;-81
2023/03/27 02:01:39;;;;;;;18.90;11.70;;;16.60;48.20;;;;;;5049354;28;20511;-82
2023/03/27 02:04:09;;;;;;;16.67;10.70;;;16.60;48.20;;;;;;5053913;28;20447;-82
2023/03/27 02:06:37;;;;;;;17.20;11.30;;;16.60;48.20;;;;;;5051863;28;20498;-82
2023/03/27 02:09:07;;;;;;;18.50;11.13;;;16.60;48.30;;;;;;5052398;28;20446;-82
2023/03/27 02:11:37;;;;;;;19.97;11.80;;;16.60;48.30;;;;;;5058919;28;20537;-82
2023/03/27 02:14:08;;;;;;;16.20;10.30;;;16.60;48.20;;;;;;5058102;28;20450;-82
2023/03/27 02:16:41;;;;;;;16.27;10.50;;;16.50;48.20;;;;;;5066487;28;20502;-82
2023/03/27 02:19:11;;;;;;;15.30;9.70;;;16.50;48.20;;;;;;5067980;28;20454;-82
2023/03/27 02:21:39;;;;;;;16.27;9.97;;;16.50;48.00;;;;;;5064376;28;20458;-82
2023/03/27 02:24:07;;;;;;;16.47;9.67;;;16.50;48.20;;;;;;5067643;28;20450;-82
2023/03/27 02:26:35;;;;;;;14.00;8.63;;;16.50;48.20;;;;;;5066139;28;20478;-82
2023/03/27 02:29:26;;;;;;;13.47;8.37;;;16.40;48.00;;;;;;5060861;28;20454;-83
2023/03/27 02:32:01;;;;;;;12.70;8.60;;;16.40;47.90;;;;;;5069487;28;20451;-83
2023/03/27 02:34:42;;;;;;;11.97;8.53;;;16.40;48.10;;;;;;5066851;28;20454;-83
2023/03/27 02:37:16;;;;;;;12.00;7.47;;;16.40;48.00;;;;;;5060373;28;20463;-83
2023/03/27 02:39:47;;;;;;;13.80;8.40;;;16.40;48.00;;;;;;5067640;28;20541;-83
2023/03/27 02:42:17;;;;;;;12.83;8.10;;;16.40;48.00;;;;;;5066893;28;20526;-83
2023/03/27 02:44:50;;;;;;;10.70;8.00;;;16.30;48.00;;;;;;5059619;28;20450;-82
2023/03/27 02:47:22;;;;;;;11.90;7.40;;;16.30;47.90;;;;;;5063803;28;20482;-83
2023/03/27 02:49:51;;;;;;;11.73;6.97;;;16.30;48.00;;;;;;5066669;28;20454;-83
2023/03/27 02:52:22;;;;;;;11.87;7.33;;;16.30;48.00;;;;;;5067279;28;20518;-82
2023/03/27 02:54:52;;;;;;;11.43;6.40;;;16.30;48.00;;;;;;5065112;28;20435;-83
2023/03/27 02:57:21;;;;;;;11.30;7.10;;;16.30;48.00;;;;;;5068544;28;20463;-82
2023/03/27 02:59:54;;;;;;;11.37;7.00;;;16.20;47.90;;;;;;5064428;28;20463;-83
2023/03/27 03:02:24;;;;;;;10.40;6.40;;;16.20;48.00;;;;;;5066097;28;20450;-82
2023/03/27 03:04:56;;;;;;;9.70;6.00;;;16.20;48.00;;;;;;5065368;28;20455;-83
2023/03/27 03:07:25;;;;;;;9.50;6.43;;;16.20;47.90;;;;;;5066246;28;20486;-81
2023/03/27 03:09:53;;;;;;;7.13;5.37;;;16.20;47.90;;;;;;5067528;28;20467;-84
2023/03/27 03:12:21;;;;;;;9.40;5.90;;;16.20;47.90;;;;;;5064033;28;20461;-82
2023/03/27 03:14:50;;;;;;;7.33;5.43;;;16.10;47.80;;;;;;5068219;28;20455;-84
2023/03/27 03:17:20;;;;;;;7.33;5.30;;;16.10;47.90;;;;;;5067456;28;20468;-83
2023/03/27 03:19:48;;;;;;;6.50;4.70;;;16.10;47.80;;;;;;5067289;28;20473;-83
2023/03/27 03:22:16;;;;;;;8.33;5.40;;;16.00;47.80;;;;;;5067605;28;20454;-82
2023/03/27 03:24:44;;;;;;;10.20;5.00;;;16.10;47.90;;;;;;5066454;28;20458;-82
2023/03/27 03:27:13;;;;;;;7.20;5.10;;;16.00;47.90;;;;;;5060409;28;20481;-82
2023/03/27 03:29:43;;;;;;;8.10;5.10;;;16.10;47.80;;;;;;5065538;28;20442;-82
2023/03/27 03:32:11;;;;;;;7.70;5.10;;;16.00;47.80;;;;;;5068098;28;20518;-83
2023/03/27 03:34:45;;;;;;;7.27;4.90;;;16.00;47.80;;;;;;5065526;28;20463;-83
2023/03/27 03:37:13;;;;;;;7.57;4.30;;;15.90;47.70;;;;;;5062625;28;20498;-83
2023/03/27 03:39:41;;;;;;;7.70;4.70;;;15.90;47.70;;;;;;5062970;28;20444;-82
2023/03/27 03:42:09;;;;;;;7.63;4.80;;;15.90;47.60;;;;;;5060363;28;20459;-83
2023/03/27 03:44:49;;;;;;;6.33;4.40;;;15.90;47.70;;;;;;5062323;28;20455;-82
2023/03/27 03:47:17;;;;;;;6.63;4.50;;;15.90;47.80;;;;;;5065454;28;20470;-82
2023/03/27 03:49:47;;;;;;;6.40;4.53;;;15.90;47.80;;;;;;5061610;28;20530;-84
2023/03/27 03:52:15;;;;;;;6.13;4.40;;;15.80;47.70;;;;;;5064029;28;20461;-83
2023/03/27 03:54:44;;;;;;;4.97;3.77;;;15.80;47.70;;;;;;5061602;28;20440;-83
2023/03/27 03:57:13;;;;;;;6.77;4.27;;;15.80;47.80;;;;;;5065096;28;20474;-82
2023/03/27 03:59:42;;;;;;;7.00;4.00;;;15.80;47.70;;;;;;5061116;28;20527;-82
2023/03/27 04:02:11;;;;;;;5.50;4.00;;;15.80;47.80;;;;;;5062716;28;20473;-84
2023/03/27 04:04:41;;;;;;;6.60;4.10;;;15.80;47.80;;;;;;5061579;28;20463;-83
2023/03/27 04:07:16;;;;;;;5.10;3.77;;;15.70;47.70;;;;;;5059437;28;20520;-84
2023/03/27 04:09:44;;;;;;;5.10;3.77;;;15.70;47.70;;;;;;5062639;28;20549;-83
2023/03/27 04:12:12;;;;;;;4.37;3.70;;;15.70;47.80;;;;;;5064315;28;20446;-82
2023/03/27 04:14:41;;;;;;;4.70;2.97;;;15.70;47.60;;;;;;5059635;28;20462;-82
2023/03/27 04:17:10;;;;;;;5.63;3.80;;;15.70;47.70;;;;;;5062292;28;20590;-84
2023/03/27 04:19:38;;;;;;;4.70;3.37;;;15.70;47.80;;;;;;5064580;28;20450;-83
2023/03/27 04:22:06;;;;;;;3.70;3.13;;;15.70;47.70;;;;;;5064439;28;20458;-82
2023/03/27 04:24:36;;;;;;;3.87;3.10;;;15.60;47.70;;;;;;5061033;28;20506;-82
2023/03/27 04:27:04;;;;;;;3.87;3.03;;;15.60;47.60;;;;;;5063149;28;20545;-83
2023/03/27 04:29:33;;;;;;;4.73;3.33;;;15.60;47.70;;;;;;5053393;28;20489;-81
2023/03/27 04:32:01;;;;;;;3.63;2.97;;;15.60;47.60;;;;;;5052118;28;20454;-82
2023/03/27 04:34:29;;;;;;;3.87;2.87;;;15.60;47.70;;;;;;5048311;28;20454;-82
2023/03/27 04:36:57;;;;;;;3.63;2.60;;;15.60;47.70;;;;;;5051626;28;20481;-82
2023/03/27 04:39:25;;;;;;;5.53;2.80;;;15.60;47.60;;;;;;5046663;28;20446;-82
2023/03/27 04:41:57;;;;;;;7.47;2.57;;;15.50;47.60;;;;;;5047037;28;20455;-82
2023/03/27 04:44:25;;;;;;;5.23;3.03;;;15.50;47.70;;;;;;5049746;28;20455;-83
2023/03/27 04:46:53;;;;;;;3.63;2.50;;;15.50;47.70;;;;;;5051770;28;20541;-82
2023/03/27 04:49:20;;;;;;;4.10;2.90;;;15.50;47.60;;;;;;5050423;28;20479;-82
2023/03/27 04:51:49;;;;;;;3.40;2.27;;;15.50;47.70;;;;;;5054023;28;20461;-82
2023/03/27 04:54:16;;;;;;;4.37;2.37;;;15.50;47.70;;;;;;5052300;28;20455;-81
2023/03/27 04:56:45;;;;;;;3.93;2.30;;;15.50;47.70;;;;;;5049003;28;20444;-81
2023/03/27 04:59:15;;;;;;;2.80;2.10;;;15.40;47.60;;;;;;5051767;28;20446;-82
2023/03/27 05:01:43;;;;;;;4.70;2.60;;;15.40;47.70;;;;;;5053805;28;20454;-80
2023/03/27 05:04:11;;;;;;;5.33;2.83;;;15.40;47.70;;;;;;5052696;28;20451;-83
2023/03/27 05:06:40;;;;;;;6.53;3.07;;;15.40;47.70;;;;;;5055164;28;20449;-83
2023/03/27 05:09:08;;;;;;;2.23;2.00;;;15.40;47.50;;;;;;5060095;28;20492;-83
2023/03/27 05:11:36;;;;;;;3.10;2.27;;;15.40;47.60;;;;;;5058002;28;20478;-82
2023/03/27 05:14:05;;;;;;;2.43;2.23;;;15.30;47.60;;;;;;5059119;28;20431;-82
2023/03/27 05:16:34;;;;;;;3.20;2.27;;;15.30;47.70;;;;;;5055846;28;20465;-83
2023/03/27 05:19:03;;;;;;;3.33;2.17;;;15.40;47.60;;;;;;5060121;28;20451;-82
2023/03/27 05:21:31;;;;;;;2.37;2.17;;;15.30;47.60;;;;;;5067951;28;20440;-83
2023/03/27 05:23:59;;;;;;;5.03;2.40;;;15.30;47.70;;;;;;5068191;28;20487;-84
2023/03/27 05:26:27;;;;;;;5.13;2.33;;;15.30;47.70;;;;;;5068847;28;20439;-84
2023/03/27 05:28:57;;;;;;;2.80;2.27;;;15.30;47.60;;;;;;5068220;28;20485;-85
2023/03/27 05:31:26;;;;;;;3.33;2.20;;;15.30;47.60;;;;;;5070072;28;20498;-84
2023/03/27 05:33:57;;;;;;;3.20;2.03;;;15.30;47.70;;;;;;5069446;28;20441;-84
2023/03/27 05:36:26;;;;;;;3.00;2.03;;;15.30;47.70;;;;;;5068548;28;20512;-84
2023/03/27 05:38:55;;;;;;;3.67;2.10;;;15.30;47.60;;;;;;5069711;28;20509;-84
2023/03/27 05:41:23;;;;;;;2.10;1.90;;;15.30;47.70;;;;;;5069914;28;20427;-84
2023/03/27 05:43:51;;;;;;;2.10;1.90;;;15.30;47.60;;;;;;5051031;28;20495;-83
2023/03/27 05:46:19;;;;;;;2.37;1.77;;;15.30;47.70;;;;;;5052919;28;20465;-84
2023/03/27 05:48:48;;;;;;;2.57;2.03;;;15.30;47.70;;;;;;5053214;28;20467;-84
2023/03/27 05:51:17;;;;;;;2.33;1.80;;;15.30;47.70;;;;;;5060699;28;20596;-85
2023/03/27 05:53:46;;;;;;;1.70;1.60;;;15.30;47.70;;;;;;5072825;28;20434;-84
2023/03/27 05:56:13;;;;;;;1.90;1.80;;;15.30;47.80;;;;;;5055445;28;20461;-83
2023/03/27 05:58:41;;;;;;;2.07;1.60;;;15.30;47.70;;;;;;5049827;28;20451;-84
2023/03/27 06:01:10;;;;;;;3.73;1.87;;;15.30;47.80;;;;;;5069414;28;20430;-84
2023/03/27 06:03:39;;;;;;;2.00;1.80;;;15.30;48.00;;;;;;5073834;28;20442;-85
2023/03/27 06:06:07;;;;;;;2.60;1.63;;;15.30;48.00;;;;;;5073304;28;20445;-84
2023/03/27 06:08:37;;;;;;;3.10;1.83;;;15.30;47.90;;;;;;5071704;28;20466;-84
2023/03/27 06:11:08;;;;;;;2.10;1.90;;;15.30;47.80;;;;;;5072008;28;20450;-84
2023/03/27 06:13:36;;;;;;;4.47;1.80;;;15.40;47.90;;;;;;5071201;28;20442;-84
2023/03/27 06:16:05;;;;;;;2.87;1.80;;;15.40;47.90;;;;;;5072672;28;20446;-84
2023/03/27 06:18:33;;;;;;;1.77;1.43;;;15.40;48.00;;;;;;5072323;28;20454;-84
2023/03/27 06:21:02;;;;;;;3.20;1.60;;;15.40;48.00;;;;;;5072734;28;20438;-84
2023/03/27 06:23:30;;;;;;;2.80;1.60;;;15.40;47.90;;;;;;5072868;28;20442;-84
2023/03/27 06:26:00;;;;;;;2.23;1.77;;;15.40;48.00;;;;;;5071872;28;20537;-84
2023/03/27 06:28:28;;;;;;;1.60;1.47;;;15.40;48.00;;;;;;5072829;28;20458;-85
2023/03/27 06:30:58;;;;;;;2.20;1.63;;;15.50;48.10;;;;;;5072777;28;20445;-85
2023/03/27 06:33:26;;;;;;;2.90;1.50;;;15.50;48.10;;;;;;5071912;28;20446;-83
2023/03/27 06:35:58;;;;;;;2.80;1.70;;;15.50;48.20;;;;;;5071381;28;20438;-84
2023/03/27 06:38:28;;;;;;;1.60;1.50;;;15.50;48.20;;;;;;5072692;28;20459;-84
2023/03/27 06:40:58;;;;;;;1.40;1.30;;;15.50;48.30;;;;;;5066263;28;20427;-84
2023/03/27 06:43:27;;;;;;;3.50;1.73;;;15.50;48.40;;;;;;5060223;28;20513;-84
2023/03/27 06:45:55;;;;;;;2.30;1.67;;;15.50;48.20;;;;;;5057822;28;20453;-84
2023/03/27 06:48:24;;;;;;;2.07;1.37;;;15.50;48.30;;;;;;5054378;28;20476;-84
2023/03/27 06:50:52;;;;;;;1.53;1.40;;;15.60;48.40;;;;;;5052201;28;20473;-84
2023/03/27 06:53:22;;;;;;;2.60;1.70;;;15.60;48.40;;;;;;5052307;28;20444;-84
2023/03/27 06:55:55;;;;;;;1.63;1.40;;;15.60;48.50;;;;;;5055000;28;20515;-84
2023/03/27 06:58:24;;;;;;;1.53;1.37;;;15.60;48.60;;;;;;5071635;28;20573;-84
2023/03/27 07:00:54;;;;;;;2.33;1.50;;;15.70;48.70;;;;;;5071997;28;20435;-84
2023/03/27 07:03:22;;;;;;;4.47;1.67;;;15.70;48.60;;;;;;5069018;28;20462;-84
2023/03/27 07:05:51;;;;;;;1.70;1.60;;;15.60;48.80;;;;;;5055807;28;20453;-84
2023/03/27 07:08:19;;;;;;;1.97;1.27;;;15.70;49.00;;;;;;5056136;28;20471;-84
2023/03/27 07:10:52;;;;;;;4.33;1.40;;;15.70;48.90;;;;;;5052417;28;20466;-84
2023/03/27 07:13:24;;;;;;;2.10;1.90;;;15.80;49.00;;;;;;5052269;28;20463;-84
2023/03/27 07:15:52;;;;;;;4.57;1.47;;;15.80;49.10;;;;;;5071591;28;20443;-84
2023/03/27 07:18:21;;;;;;;1.80;1.20;;;15.80;49.20;;;;;;5071286;28;20470;-84
2023/03/27 07:20:50;;;;;;;2.10;1.50;;;15.90;49.30;;;;;;5069775;28;20462;-84
2023/03/27 07:23:18;;;;;;;1.30;1.20;;;16.00;49.40;;;;;;5069426;28;20494;-85
2023/03/27 07:25:48;;;;;;;1.73;1.10;;;16.00;49.40;;;;;;5068964;28;20443;-86
2023/03/27 07:28:17;;;;;;;2.17;1.70;;;16.10;49.40;;;;;;5069874;28;20455;-86
2023/03/27 07:30:45;;;;;;;2.30;1.30;;;16.10;49.50;;;;;;5071155;28;20490;-85
2023/03/27 07:33:13;;;;;;;1.27;1.17;;;16.10;49.50;;;;;;5076265;28;20442;-87
2023/03/27 07:35:44;;;;;;;4.27;1.50;;;16.20;49.60;;;;;;5059914;28;20434;-84
2023/03/27 07:38:12;;;;;;;1.53;1.40;;;16.20;49.60;;;;;;5053120;28;20471;-84
2023/03/27 07:40:42;;;;;;;2.70;1.20;;;16.30;49.80;;;;;;5047807;28;20458;-82
2023/03/27 07:43:11;;;;;;;2.13;1.37;;;16.40;49.90;;;;;;5038713;28;20447;-83
2023/03/27 07:45:40;;;;;;;2.40;1.27;;;16.50;49.80;;;;;;5045673;28;20435;-84
2023/03/27 07:48:08;;;;;;;1.40;1.30;;;16.50;49.70;;;;;;5045225;28;20459;-84
2023/03/27 07:50:36;;;;;;;1.30;1.17;;;16.60;49.80;;;;;;5046273;28;20471;-84
2023/03/27 07:53:06;;;;;;;1.87;1.40;;;16.60;49.90;;;;;;5046254;28;20454;-83
2023/03/27 07:55:36;;;;;;;1.40;1.30;;;16.70;50.10;;;;;;5057352;28;20461;-84
2023/03/27 07:58:05;;;;;;;2.60;1.43;;;16.80;50.20;;;;;;5050564;28;20546;-84
2023/03/27 08:00:35;;;;;;;1.47;1.20;;;16.80;50.10;;;;;;5054258;28;20962;-84
2023/03/27 08:03:06;;;;;;;1.80;1.50;;;16.90;50.40;;;;;;5052781;28;20447;-82
2023/03/27 08:05:37;;;;;;;1.87;1.20;;;16.90;50.50;;;;;;5058527;28;20453;-81
2023/03/27 08:08:12;;;;;;;1.60;1.47;;;17.00;50.60;;;;;;5065571;28;20524;-85
2023/03/27 08:10:40;;;;;;;1.27;1.17;;;17.10;50.70;;;;;;5048964;28;20465;-84
2023/03/27 08:13:08;;;;;;;1.10;1.10;;;17.20;51.00;;;;;;5065251;28;20455;-84
2023/03/27 08:15:37;;;;;;;1.47;1.37;;;17.30;51.00;;;;;;5069236;28;20447;-84
2023/03/27 08:18:05;;;;;;;2.17;1.10;;;17.40;51.00;;;;;;5069379;28;20473;-84
2023/03/27 08:20:34;;;;;;;1.40;1.20;;;17.50;51.30;;;;;;5068863;28;20465;-84
2023/03/27 08:23:03;;;;;;;2.67;1.40;;;17.60;51.50;;;;;;5060622;28;20435;-81
2023/03/27 08:25:33;;;;;;;7.63;1.20;;;17.80;51.60;;;;;;5043533;28;20447;-82
2023/03/27 08:28:01;;;;;;;2.97;0.87;;;17.00;45.00;;;;;;5044066;28;20517;-81
2023/03/27 08:30:30;;;;;;;16.47;9.30;;;15.10;42.60;;;;;;5044441;28;20483;-81
2023/03/27 08:32:58;;;;;;;3.80;1.60;;;15.10;43.70;;;;;;5039185;28;20451;-81
2023/03/27 08:35:26;;;;;;;15.20;1.83;;;14.70;42.30;;;;;;5043832;28;20438;-81
2023/03/27 08:37:55;;;;;;;5.03;1.40;;;14.80;41.40;;;;;;5040978;28;20477;-82
2023/03/27 08:40:25;;;;;;;5.50;1.40;;;14.60;41.10;;;;;;5043854;28;20431;-81
2023/03/27 08:42:55;;;;;;;8.97;1.90;;;14.20;41.20;;;;;;5060126;28;20447;-82
2023/03/27 08:45:26;;;;;;;7.03;1.93;;;15.10;47.00;;;;;;5063313;28;20441;-82
2023/03/27 08:47:56;;;;;;;7.13;1.40;;;16.50;47.90;;;;;;5059605;28;20481;-82
2023/03/27 08:50:31;;;;;;;5.73;1.50;;;17.40;48.20;;;;;;5058054;28;20479;-83
2023/03/27 08:52:59;;;;;;;5.80;1.47;;;18.10;48.90;;;;;;5062784;28;20438;-83
2023/03/27 08:55:33;;;;;;;23.37;1.40;;;18.70;49.70;;;;;;5056496;28;20461;-81
2023/03/27 08:58:03;;;;;;;12.97;1.90;;;19.30;50.20;;;;;;5049538;28;20466;-80
2023/03/27 09:00:34;;;;;;;5.93;1.30;;;19.80;50.30;;;;;;5043044;28;20435;-83
2023/03/27 09:03:05;;;;;;;9.00;1.67;;;20.30;50.30;;;;;;5045596;28;20506;-82
2023/03/27 09:05:35;;;;;;;3.43;1.27;;;20.70;50.40;;;;;;5053542;28;20403;-84
2023/03/27 09:08:04;;;;;;;5.73;1.40;;;20.90;50.10;;;;;;5060234;28;20455;-82
2023/03/27 09:10:34;;;;;;;12.37;1.30;;;20.80;50.10;;;;;;5054658;28;20464;-84
2023/03/27 09:13:08;;;;;;;2.90;1.37;;;20.70;50.40;;;;;;5039991;28;20455;-88
2023/03/27 09:15:38;;;;;;;16.97;2.00;;;20.60;50.60;;;;;;5043616;28;20491;-88
2023/03/27 09:18:07;;;;;;;5.47;1.20;;;20.70;50.90;;;;;;5040056;28;20494;-87
2023/03/27 09:20:36;;;;;;;4.63;1.27;;;20.90;51.00;;;;;;5045650;28;20438;-87
2023/03/27 09:23:09;;;;;;;4.30;1.43;;;21.10;50.90;;;;;;5042131;28;20431;-88
2023/03/27 09:25:38;;;;;;;7.00;1.10;;;21.30;51.00;;;;;;5052373;28;20471;-89
2023/03/27 09:28:14;;;;;;;4.90;1.30;;;21.50;50.90;;;;;;5048857;28;20435;-89
2023/03/27 09:30:42;;;;;;;3.13;1.37;;;21.70;51.20;;;;;;5045149;28;20852;-89
2023/03/27 09:33:11;;;;;;;6.90;1.43;;;21.90;51.50;;;;;;5051930;28;20454;-87
2023/03/27 09:35:39;;;;;;;12.23;1.20;;;22.20;51.90;;;;;;5050899;28;20454;-91
2023/03/27 09:38:28;;;;;;;6.43;1.33;;;22.40;52.00;;;;;;5055051;28;20525;-87
2023/03/27 09:40:58;;;;;;;3.77;1.20;;;22.60;52.00;;;;;;5045947;28;20439;-89
2023/03/27 09:43:30;;;;;;;3.97;1.30;;;22.80;52.30;;;;;;5048608;28;20461;-89
2023/03/27 09:45:58;;;;;;;3.60;1.33;;;22.90;52.40;;;;;;5049918;28;20908;-88
2023/03/27 09:48:31;;;;;;;2.73;1.20;;;23.10;52.50;;;;;;5051188;28;20525;-86
2023/03/27 09:51:01;;;;;;;1.60;1.17;;;23.30;52.60;;;;;;5050663;28;20451;-84
2023/03/27 09:53:29;;;;;;;4.10;1.20;;;23.30;52.10;;;;;;5047420;28;20550;-84
2023/03/27 09:55:58;;;;;;;2.63;1.20;;;23.10;51.90;;;;;;5058952;28;20450;-79
2023/03/27 09:58:33;;;;;;;3.27;1.40;;;22.90;51.90;;;;;;5052462;28;20530;-82
2023/03/27 10:01:15;;;;;;;2.63;1.40;;;22.60;51.80;;;;;;5046621;28;20446;-83
2023/03/27 10:03:48;;;;;;;2.03;1.10;;;22.40;48.90;;;;;;5046928;28;20450;-83
2023/03/27 10:06:24;;;;;;;4.07;1.30;;;22.50;46.70;;;;;;5052738;28;20500;-84
2023/03/27 10:08:54;;;;;;;2.00;1.20;;;22.80;45.40;;;;;;5051356;28;20462;-82
2023/03/27 10:11:23;;;;;;;2.83;1.30;;;22.90;44.40;;;;;;5049474;28;20497;-83
2023/03/27 10:13:52;;;;;;;5.23;1.03;;;23.00;44.00;;;;;;5050199;28;20446;-81
2023/03/27 10:16:23;;;;;;;1.77;1.37;;;23.00;43.80;;;;;;5052117;28;20454;-81
2023/03/27 10:18:54;;;;;;;2.00;1.20;;;23.20;43.90;;;;;;5044155;28;20463;-80
2023/03/27 10:21:27;;;;;;;4.47;1.10;;;23.50;43.50;;;;;;5045861;28;20540;-81
2023/03/27 10:24:00;;;;;;;6.43;1.30;;;23.60;42.40;;;;;;5048001;28;20504;-82
2023/03/27 10:26:28;;;;;;;4.57;1.30;;;23.50;42.20;;;;;;5049023;28;20446;-80
2023/03/27 10:29:01;;;;;;;3.20;1.23;;;23.30;42.30;;;;;;5050659;28;20434;-80
2023/03/27 10:31:30;;;;;;;2.13;1.23;;;23.20;42.50;;;;;;5047759;28;20474;-79
2023/03/27 10:34:01;;;;;;;3.70;1.37;;;23.10;42.40;;;;;;5049484;28;20486;-80
2023/03/27 10:36:33;;;;;;;13.00;1.20;;;23.10;42.50;;;;;;5051766;28;20442;-82
2023/03/27 10:39:02;;;;;;;2.97;1.40;;;22.90;42.60;;;;;;5052020;28;20443;-80
2023/03/27 10:41:30;;;;;;;7.90;1.17;;;22.70;42.60;;;;;;5047500;28;20434;-82
2023/03/27 10:43:59;;;;;;;5.90;1.60;;;22.70;42.80;;;;;;5059320;28;20402;-83
2023/03/27 10:46:28;;;;;;;6.43;1.03;;;22.70;43.10;;;;;;5063947;28;20443;-80
2023/03/27 10:49:00;;;;;;;6.10;1.10;;;23.10;43.30;;;;;;5049988;28;20439;-83
2023/03/27 10:51:33;;;;;;;5.33;1.30;;;23.50;43.00;;;;;;5054409;28;20474;-86
2023/03/27 10:54:16;;;;;;;8.53;1.30;;;23.70;41.90;;;;;;5052919;28;20467;-80
2023/03/27 10:56:50;;;;;;;5.13;1.30;;;23.60;41.60;;;;;;5038477;28;20488;-81
2023/03/27 10:59:21;;;;;;;5.33;1.27;;;23.40;41.50;;;;;;5043938;28;20458;-80
2023/03/27 11:02:12;;;;;;;6.57;1.20;;;23.30;41.80;;;;;;5038509;28;20447;-81
2023/03/27 11:04:57;;;;;;;2.90;1.30;;;23.20;41.90;;;;;;5054407;28;21020;-83
2023/03/27 11:07:32;;;;;;;1.33;1.20;;;23.20;42.30;;;;;;5054896;28;20469;-82
2023/03/27 11:10:03;;;;;;;1.90;1.00;;;23.50;42.30;;;;;;5049184;28;20422;-78
2023/03/27 11:13:03;;;;;;;1.97;1.00;;;23.80;41.90;;;;;;5046755;28;20452;-82
2023/03/27 11:15:38;;;;;;;5.80;1.13;;;23.80;41.30;;;;;;5057887;28;20432;-82
2023/03/27 11:18:09;;;;;;;2.43;1.30;;;23.70;41.10;;;;;;5042460;28;20455;-77
2023/03/27 11:20:43;;;;;;;4.20;1.10;;;23.70;41.40;;;;;;5055799;28;20479;-82
2023/03/27 11:23:13;;;;;;;1.73;0.90;;;23.60;41.20;;;;;;5040022;28;20441;-82
2023/03/27 11:25:43;;;;;;;1.00;0.90;;;23.90;42.00;;;;;;5046779;28;20418;-83
2023/03/27 11:28:17;;;;;;;5.77;1.50;;;24.20;41.30;;;;;;5044766;28;20468;-84
2023/03/27 11:30:49;;;;;;;1.93;1.00;;;24.40;40.80;;;;;;5046923;28;20517;-78
2023/03/27 11:33:38;;;;;;;2.90;0.90;;;24.30;40.40;;;;;;5044562;28;20445;-80
2023/03/27 11:36:25;;;;;;;2.37;1.00;;;24.10;40.40;;;;;;5046397;28;20480;-80
2023/03/27 11:39:05;;;;;;;4.60;1.17;;;23.90;40.70;;;;;;5036590;28;20417;-81
2023/03/27 11:41:36;;;;;;;4.13;1.33;;;23.80;40.90;;;;;;5049959;28;20873;-83
2023/03/27 11:44:05;;;;;;;2.40;1.27;;;23.60;40.90;;;;;;5056896;28;20261;-80
2023/03/27 11:46:46;;;;;;;2.97;1.50;;;23.40;41.20;;;;;;5044675;28;20452;-83
2023/03/27 11:49:33;;;;;;;14.90;2.13;;;23.40;41.60;;;;;;5049489;28;20542;-83
2023/03/27 11:52:07;;;;;;;6.53;1.93;;;23.40;42.80;;;;;;5049562;28;20966;-79
2023/03/27 11:54:46;;;;;;;7.67;1.70;;;23.40;43.20;;;;;;5051878;28;20443;-81
2023/03/27 11:57:20;;;;;;;5.57;1.43;;;23.60;44.10;;;;;;5048707;28;20479;-81
2023/03/27 12:00:04;;;;;;;13.20;1.80;;;23.90;44.10;;;;;;5050082;28;20451;-85
2023/03/27 12:03:00;;;;;;;11.90;1.90;;;24.30;43.90;;;;;;5055714;28;20421;-84
2023/03/27 12:05:37;;;;;;;2.83;1.40;;;24.60;43.60;;;;;;5051251;28;20489;-85
2023/03/27 12:08:07;;;;;;;6.63;1.53;;;24.90;43.60;;;;;;5049655;28;20557;-84
2023/03/27 12:10:37;;;;;;;11.83;2.10;;;25.10;43.40;;;;;;5053656;28;20516;-85
2023/03/27 12:13:27;;;;;;;5.60;2.00;;;25.30;43.20;;;;;;5047485;28;20470;-84
2023/03/27 12:16:26;;;;;;;9.23;1.77;;;25.40;43.00;;;;;;5055307;28;20985;-84
2023/03/27 12:18:59;;;;;;;6.10;2.00;;;25.60;42.80;;;;;;5054690;28;20475;-83
2023/03/27 12:21:52;;;;;;;6.70;1.40;;;25.70;42.60;;;;;;5058414;28;20425;-84
2023/03/27 12:24:34;;;;;;;3.40;1.40;;;25.50;42.70;;;;;;5056091;28;20479;-85
2023/03/27 12:27:18;;;;;;;3.60;1.77;;;25.30;43.10;;;;;;5058660;28;20498;-83
2023/03/27 12:30:04;;;;;;;4.77;1.70;;;25.20;43.40;;;;;;5056588;28;20433;-85
2023/03/27 12:32:52;;;;;;;5.00;1.70;;;24.90;43.70;;;;;;5060489;28;20445;-84
2023/03/27 12:35:25;;;;;;;4.13;1.60;;;24.70;44.20;;;;;;5047890;28;20469;-84
2023/03/27 12:37:57;;;;;;;3.33;1.67;;;24.60;44.40;;;;;;5062419;28;20446;-84
2023/03/27 12:40:27;;;;;;;2.70;1.67;;;24.50;44.40;;;;;;5046601;28;21014;-82
2023/03/27 12:43:05;;;;;;;8.47;1.97;;;24.40;44.60;;;;;;5047508;28;20455;-81
2023/03/27 12:45:33;;;;;;;19.13;2.00;;;24.20;44.80;;;;;;5052632;28;20458;-81
2023/03/27 12:48:18;;;;;;;12.40;2.00;;;24.30;45.20;;;;;;5053806;28;20577;-81
2023/03/27 12:50:54;;;;;;;8.17;1.97;;;24.60;45.40;;;;;;5052598;28;20443;-81
2023/03/27 12:53:45;;;;;;;6.07;2.10;;;24.80;45.00;;;;;;5049576;28;20531;-80
2023/03/27 12:56:31;;;;;;;8.50;2.20;;;25.00;44.80;;;;;;5046105;28;20543;-81
2023/03/27 12:59:00;;;;;;;2.43;1.60;;;25.30;44.50;;;;;;5049471;28;20425;-80
2023/03/27 13:01:45;;;;;;;6.20;1.87;;;25.40;44.20;;;;;;5052313;28;20446;-79
2023/03/27 13:04:40;;;;;;;5.80;1.60;;;25.50;44.00;;;;;;5052794;28;20493;-80
2023/03/27 13:07:11;;;;;;;9.33;1.90;;;25.60;43.80;;;;;;5051344;28;20470;-80